createdAt,value
2019-03-04T00:00:00.853Z,78.74
2019-03-04T00:02:29.651Z,78.86
2019-03-04T00:04:58.437Z,78.91
2019-03-04T00:07:27.219Z,78.57
2019-03-04T00:09:56.003Z,78.44
2019-03-04T00:12:24.779Z,78.38
2019-03-04T00:14:54.169Z,77.83
2019-03-04T00:17:22.989Z,78.20
2019-03-04T00:19:53.183Z,78.13
2019-03-04T00:22:23.324Z,78.12
2019-03-04T00:24:52.191Z,77.54
2019-03-04T00:27:20.988Z,77.76
2019-03-04T00:29:49.804Z,77.50
2019-03-04T00:32:18.635Z,77.90
2019-03-04T00:34:47.398Z,77.78
2019-03-04T00:37:16.206Z,77.96
2019-03-04T00:39:45.050Z,77.42
2019-03-04T00:42:13.873Z,77.61
2019-03-04T00:44:42.650Z,77.58
2019-03-04T00:47:11.439Z,77.13
2019-03-04T00:49:40.282Z,77.16
2019-03-04T00:52:09.057Z,77.33
2019-03-04T00:54:37.991Z,77.34
2019-03-04T00:57:06.742Z,77.27
2019-03-04T00:59:35.533Z,77.02
2019-03-04T01:02:04.345Z,77.05
2019-03-04T01:04:34.042Z,76.91
2019-03-04T01:07:03.142Z,76.92
2019-03-04T01:09:33.489Z,77.25
2019-03-04T01:12:02.748Z,77.25
2019-03-04T01:14:32.183Z,76.91
2019-03-04T01:17:01.188Z,76.75
2019-03-04T01:19:31.079Z,76.82
2019-03-04T01:22:00.407Z,76.86
2019-03-04T01:24:29.705Z,76.54
2019-03-04T01:26:58.511Z,76.49
2019-03-04T01:29:28.291Z,76.52
2019-03-04T01:31:57.131Z,76.71
2019-03-04T01:34:27.919Z,76.27
2019-03-04T01:36:56.707Z,76.40
2019-03-04T01:39:26.136Z,76.08
2019-03-04T01:41:54.980Z,76.01
2019-03-04T01:44:23.777Z,75.92
2019-03-04T01:46:52.571Z,76.31
2019-03-04T01:49:21.370Z,75.97
2019-03-04T01:51:50.200Z,76.21
2019-03-04T01:54:19.957Z,76.06
2019-03-04T01:56:48.761Z,76.04
2019-03-04T01:59:17.572Z,75.87
2019-03-04T02:01:47.357Z,76.00
2019-03-04T02:04:16.125Z,76.48
2019-03-04T02:06:44.930Z,76.90
2019-03-04T02:09:15.458Z,76.66
2019-03-04T02:11:44.238Z,76.86
2019-03-04T02:14:13.034Z,76.51
2019-03-04T02:16:41.932Z,76.71
2019-03-04T02:19:10.701Z,76.70
2019-03-04T02:21:39.747Z,76.87
2019-03-04T02:24:18.064Z,76.42
2019-03-04T02:26:48.115Z,76.44
2019-03-04T02:29:16.885Z,76.45
2019-03-04T02:31:45.671Z,76.43
2019-03-04T02:34:14.431Z,76.49
2019-03-04T02:36:44.314Z,76.70
2019-03-04T02:39:14.016Z,76.80
2019-03-04T02:41:42.790Z,76.84
2019-03-04T02:44:11.586Z,76.72
2019-03-04T02:46:40.359Z,76.08
2019-03-04T02:49:10.104Z,76.15
2019-03-04T02:51:39.367Z,76.36
2019-03-04T02:54:08.183Z,75.86
2019-03-04T02:56:37.033Z,75.67
2019-03-04T02:59:06.010Z,75.89
2019-03-04T03:01:34.774Z,75.31
2019-03-04T03:04:06.397Z,75.46
2019-03-04T03:06:35.286Z,75.69
2019-03-04T03:09:05.032Z,75.47
2019-03-04T03:11:34.262Z,75.41
2019-03-04T03:14:04.760Z,75.25
2019-03-04T03:16:33.865Z,75.21
2019-03-04T03:19:04.491Z,74.93
2019-03-04T03:21:33.270Z,75.00
2019-03-04T03:24:02.043Z,74.56
2019-03-04T03:26:30.868Z,75.00
2019-03-04T03:28:59.645Z,74.78
2019-03-04T03:31:29.047Z,75.01
2019-03-04T03:33:58.734Z,74.69
2019-03-04T03:36:27.633Z,74.59
2019-03-04T03:38:56.423Z,74.69
2019-03-04T03:41:25.905Z,74.25
2019-03-04T03:43:54.688Z,73.87
2019-03-04T03:46:23.513Z,74.22
2019-03-04T03:48:52.315Z,73.33
2019-03-04T03:51:21.810Z,73.84
2019-03-04T03:53:51.537Z,73.84
2019-03-04T03:56:20.316Z,73.42
2019-03-04T03:58:49.091Z,73.68
2019-03-04T04:01:17.884Z,73.06
2019-03-04T04:03:46.656Z,72.96
2019-03-04T04:06:15.459Z,72.99
2019-03-04T04:08:44.256Z,72.33
2019-03-04T04:11:13.029Z,72.75
2019-03-04T04:13:41.847Z,72.49
2019-03-04T04:16:11.248Z,72.25
2019-03-04T04:18:40.635Z,72.12
2019-03-04T04:21:10.503Z,72.06
2019-03-04T04:23:39.539Z,72.10
2019-03-04T04:26:12.708Z,71.79
2019-03-04T04:28:41.539Z,71.37
2019-03-04T04:31:10.340Z,71.75
2019-03-04T04:33:39.130Z,71.02
2019-03-04T04:36:07.914Z,70.82
2019-03-04T04:38:36.813Z,70.90
2019-03-04T04:41:06.622Z,70.69
2019-03-04T04:43:35.422Z,69.96
2019-03-04T04:46:04.867Z,69.81
2019-03-04T04:48:33.650Z,69.62
2019-03-04T04:51:02.442Z,69.36
2019-03-04T04:53:31.223Z,69.17
2019-03-04T04:55:59.988Z,69.17
2019-03-04T04:58:28.751Z,68.82
2019-03-04T05:00:57.532Z,69.19
2019-03-04T05:03:28.145Z,69.03
2019-03-04T05:05:57.612Z,68.99
2019-03-04T05:08:26.401Z,68.84
2019-03-04T05:10:55.217Z,68.33
2019-03-04T05:13:24.089Z,68.48
2019-03-04T05:15:53.531Z,68.81
2019-03-04T05:18:22.375Z,68.60
2019-03-04T05:20:51.169Z,68.86
2019-03-04T05:23:20.840Z,69.18
2019-03-04T05:25:49.706Z,69.18
2019-03-04T05:28:20.250Z,68.88
2019-03-04T05:30:50.627Z,69.17
2019-03-04T05:33:20.091Z,69.20
2019-03-04T05:35:48.884Z,69.39
2019-03-04T05:38:17.678Z,68.97
2019-03-04T05:40:47.463Z,69.48
2019-03-04T05:43:16.772Z,69.08
2019-03-04T05:45:46.071Z,69.29
2019-03-04T05:48:14.880Z,69.32
2019-03-04T05:50:44.311Z,69.12
2019-03-04T05:53:13.088Z,69.46
2019-03-04T05:55:41.942Z,69.39
2019-03-04T05:58:10.789Z,68.97
2019-03-04T06:00:41.605Z,68.14
2019-03-04T06:03:11.655Z,67.58
2019-03-04T06:05:40.451Z,68.46
2019-03-04T06:08:10.031Z,69.08
2019-03-04T06:10:38.905Z,70.11
2019-03-04T06:13:08.250Z,70.66
2019-03-04T06:15:37.135Z,71.30
2019-03-04T06:18:05.953Z,71.44
2019-03-04T06:20:34.733Z,72.78
2019-03-04T06:23:03.505Z,73.16
2019-03-04T06:25:32.291Z,73.50
2019-03-04T06:28:01.098Z,74.11
2019-03-04T06:30:29.874Z,73.92
2019-03-04T06:33:01.659Z,74.72
2019-03-04T06:35:31.077Z,75.49
2019-03-04T06:37:59.924Z,76.07
2019-03-04T06:40:29.417Z,76.68
2019-03-04T06:42:58.737Z,76.54
2019-03-04T06:45:28.091Z,77.19
2019-03-04T06:47:56.871Z,77.53
2019-03-04T06:50:56.878Z,77.76
2019-03-04T06:53:30.006Z,78.18
2019-03-04T06:56:05.298Z,78.12
2019-03-04T06:58:34.264Z,78.58
2019-03-04T07:01:11.220Z,78.57
2019-03-04T07:03:46.947Z,78.62
2019-03-04T07:06:16.053Z,78.16
2019-03-04T07:09:18.265Z,78.06
2019-03-04T07:11:50.200Z,77.82
2019-03-04T07:14:19.007Z,77.31
2019-03-04T07:16:49.712Z,76.78
2019-03-04T07:19:20.760Z,76.51
2019-03-04T07:21:50.624Z,76.10
2019-03-04T07:24:19.401Z,76.15
2019-03-04T07:26:48.443Z,75.91
2019-03-04T07:29:18.575Z,76.39
2019-03-04T07:31:48.584Z,76.46
2019-03-04T07:34:17.375Z,76.20
2019-03-04T07:36:46.815Z,76.77
2019-03-04T07:39:16.510Z,76.95
2019-03-04T07:44:23.752Z,76.63
2019-03-04T07:46:52.519Z,76.62
2019-03-04T07:49:21.428Z,76.52
2019-03-04T07:51:50.868Z,76.34
2019-03-04T07:54:20.563Z,76.10
2019-03-04T07:56:49.410Z,75.79
2019-03-04T07:59:18.200Z,75.40
2019-03-04T08:01:47.906Z,75.74
2019-03-04T08:04:17.646Z,75.00
2019-03-04T08:06:47.056Z,75.09
2019-03-04T08:09:27.135Z,74.54
2019-03-04T08:12:07.328Z,75.00
2019-03-04T08:14:36.880Z,74.61
2019-03-04T08:17:07.059Z,74.90
2019-03-04T08:19:37.313Z,74.72
2019-03-04T08:22:06.704Z,75.03
2019-03-04T08:24:35.470Z,75.31
2019-03-04T08:27:04.885Z,75.41
2019-03-04T08:29:33.804Z,76.06
2019-03-04T08:32:02.613Z,76.39
2019-03-04T08:34:31.536Z,76.64
2019-03-04T08:37:00.225Z,77.09
2019-03-04T08:39:29.909Z,77.30
2019-03-04T08:42:00.042Z,77.85
2019-03-04T08:44:31.002Z,77.95
2019-03-04T08:46:58.900Z,78.33
2019-03-04T08:49:27.679Z,78.61
2019-03-04T08:51:56.970Z,78.63
2019-03-04T08:54:25.777Z,78.27
2019-03-04T08:57:03.707Z,78.94
2019-03-04T08:59:23.396Z,78.65
2019-03-04T09:01:52.258Z,79.04
2019-03-04T09:04:21.127Z,79.38
2019-03-04T09:06:49.992Z,79.14
2019-03-04T09:09:18.860Z,79.06
2019-03-04T09:11:47.634Z,78.89
2019-03-04T09:14:17.087Z,79.03
2019-03-04T09:16:45.942Z,79.57
2019-03-04T09:19:15.937Z,79.94
2019-03-04T09:21:45.447Z,80.12
2019-03-04T09:24:14.227Z,79.76
2019-03-04T09:26:43.662Z,79.02
2019-03-04T09:29:13.699Z,78.85
2019-03-04T09:31:42.510Z,78.56
2019-03-04T09:34:11.300Z,78.09
2019-03-04T09:36:40.637Z,79.21
2019-03-04T09:39:09.435Z,78.50
2019-03-04T09:41:39.949Z,78.06
2019-03-04T09:44:09.825Z,78.48
2019-03-04T09:46:39.896Z,78.45
2019-03-04T09:49:10.461Z,78.33
2019-03-04T09:51:39.254Z,78.92
2019-03-04T09:54:09.280Z,78.23
2019-03-04T09:56:38.235Z,78.30
2019-03-04T09:59:07.003Z,79.02
2019-03-04T10:01:44.676Z,78.91
2019-03-04T10:04:23.818Z,78.04
2019-03-04T10:07:34.793Z,77.55
2019-03-04T10:10:21.103Z,77.14
2019-03-04T10:12:59.084Z,77.31
2019-03-04T10:15:42.814Z,77.16
2019-03-04T10:18:24.726Z,77.26
2019-03-04T10:21:13.172Z,76.26
2019-03-04T10:23:56.927Z,76.37
2019-03-04T10:26:35.460Z,75.94
2019-03-04T10:29:31.178Z,76.40
2019-03-04T10:32:17.572Z,76.22
2019-03-04T10:35:07.570Z,76.28
2019-03-04T10:37:54.510Z,76.30
2019-03-04T10:40:40.853Z,75.71
2019-03-04T10:43:38.763Z,74.84
2019-03-04T10:46:46.687Z,74.73
2019-03-04T10:49:16.135Z,73.85
2019-03-04T10:51:45.224Z,74.40
2019-03-04T10:54:14.311Z,73.90
2019-03-04T10:56:43.747Z,74.70
2019-03-04T10:59:12.560Z,74.09
2019-03-04T11:01:41.351Z,73.50
2019-03-04T11:04:10.281Z,74.73
2019-03-04T11:06:39.257Z,73.91
2019-03-04T11:09:08.695Z,74.08
2019-03-04T11:11:37.549Z,73.67
2019-03-04T11:14:07.069Z,72.67
2019-03-04T11:16:35.997Z,72.69
2019-03-04T11:19:05.416Z,72.89
2019-03-04T11:21:34.713Z,72.69
2019-03-04T11:24:04.261Z,73.20
2019-03-04T11:26:33.831Z,72.81
2019-03-04T11:29:03.204Z,72.73
2019-03-04T11:31:32.185Z,72.07
2019-03-04T11:34:01.003Z,71.59
2019-03-04T11:36:29.763Z,71.79
2019-03-04T11:39:04.735Z,71.50
2019-03-04T11:41:33.509Z,71.01
2019-03-04T11:44:03.152Z,71.15
2019-03-04T11:46:35.118Z,71.29
2019-03-04T11:49:03.931Z,71.05
2019-03-04T11:51:34.335Z,69.57
2019-03-04T11:54:03.142Z,70.36
2019-03-04T11:56:31.925Z,70.93
2019-03-04T11:59:00.790Z,71.00
2019-03-04T12:01:34.432Z,69.29
2019-03-04T12:04:03.229Z,70.52
2019-03-04T12:06:32.107Z,70.03
2019-03-04T12:09:01.994Z,68.64
2019-03-04T12:11:37.933Z,69.46
2019-03-04T12:14:03.169Z,69.15
2019-03-04T12:16:30.251Z,68.10
2019-03-04T12:18:59.134Z,68.97
2019-03-04T12:21:34.782Z,69.24
2019-03-04T12:24:04.390Z,68.52
2019-03-04T12:26:33.870Z,68.18
2019-03-04T12:29:02.959Z,69.15
2019-03-04T12:31:38.615Z,68.73
2019-03-04T12:34:08.103Z,67.26
2019-03-04T12:36:38.855Z,67.44
2019-03-04T12:39:08.414Z,68.18
2019-03-04T12:41:37.244Z,67.54
2019-03-04T12:44:06.026Z,67.20
2019-03-04T12:46:35.092Z,67.15
2019-03-04T12:49:03.894Z,67.59
2019-03-04T12:51:36.742Z,67.26
2019-03-04T12:54:06.778Z,67.14
2019-03-04T12:56:35.624Z,65.64
2019-03-04T12:59:04.439Z,64.77
2019-03-04T13:01:34.150Z,65.46
2019-03-04T13:04:03.484Z,65.05
2019-03-04T13:06:32.764Z,65.44
2019-03-04T13:09:01.527Z,64.16
2019-03-04T13:11:30.952Z,64.62
2019-03-04T13:13:59.781Z,64.12
2019-03-04T13:16:29.240Z,63.90
2019-03-04T13:18:58.747Z,63.88
2019-03-04T13:21:27.582Z,63.33
2019-03-04T13:23:56.981Z,63.61
2019-03-04T13:26:26.626Z,63.00
2019-03-04T13:28:56.102Z,62.90
2019-03-04T13:31:24.858Z,63.83
2019-03-04T13:33:54.542Z,63.35
2019-03-04T13:36:23.394Z,62.41
2019-03-04T13:38:53.218Z,60.99
2019-03-04T13:41:22.207Z,61.31
2019-03-04T13:43:51.762Z,62.91
2019-03-04T13:46:20.575Z,62.29
2019-03-04T13:48:50.486Z,62.01
2019-03-04T13:51:20.054Z,62.77
2019-03-04T13:53:49.118Z,62.31
2019-03-04T13:56:17.913Z,62.20
2019-03-04T13:58:47.311Z,62.57
2019-03-04T14:01:16.159Z,60.28
2019-03-04T14:03:45.910Z,61.14
2019-03-04T14:06:16.001Z,60.31
2019-03-04T14:08:44.766Z,61.11
2019-03-04T14:11:14.126Z,60.01
2019-03-04T14:13:42.959Z,60.46
2019-03-04T14:16:13.430Z,60.16
2019-03-04T14:18:42.179Z,59.06
2019-03-04T14:21:11.089Z,60.00
2019-03-04T14:23:40.270Z,59.49
2019-03-04T14:26:09.068Z,58.96
2019-03-04T14:28:38.973Z,59.17
2019-03-04T14:31:07.758Z,58.82
2019-03-04T14:33:37.148Z,59.41
2019-03-04T14:36:06.784Z,58.39
2019-03-04T14:38:35.624Z,58.09
2019-03-04T14:41:04.962Z,59.41
2019-03-04T14:43:33.808Z,57.96
2019-03-04T14:46:03.420Z,58.27
2019-03-04T14:48:32.902Z,58.10
2019-03-04T14:51:01.834Z,57.35
2019-03-04T14:53:30.723Z,57.36
2019-03-04T14:56:01.197Z,57.08
2019-03-04T14:58:28.442Z,56.89
2019-03-04T15:00:58.517Z,57.32
2019-03-04T15:03:27.669Z,57.27
2019-03-04T15:06:06.274Z,56.61
2019-03-04T15:08:25.233Z,58.02
2019-03-04T15:10:54.101Z,58.21
2019-03-04T15:13:22.903Z,58.25
2019-03-04T15:16:00.792Z,58.08
2019-03-04T15:18:20.655Z,58.74
2019-03-04T15:20:49.476Z,58.55
2019-03-04T15:23:18.828Z,58.82
2019-03-04T15:25:47.619Z,59.25
2019-03-04T15:28:18.283Z,58.84
2019-03-04T15:30:48.919Z,58.98
2019-03-04T15:33:19.146Z,58.89
2019-03-04T15:35:49.847Z,58.97
2019-03-04T15:38:19.408Z,59.11
2019-03-04T15:40:48.940Z,59.74
2019-03-04T15:43:18.432Z,60.19
2019-03-04T15:45:48.490Z,60.77
2019-03-04T15:48:18.534Z,60.83
2019-03-04T15:50:47.310Z,61.33
2019-03-04T15:53:16.098Z,61.60
2019-03-04T15:55:44.925Z,62.13
2019-03-04T15:58:13.891Z,62.77
2019-03-04T16:00:43.386Z,62.54
2019-03-04T16:03:12.167Z,63.20
2019-03-04T16:05:41.075Z,63.22
2019-03-04T16:08:10.044Z,63.45
2019-03-04T16:10:39.549Z,62.99
2019-03-04T16:13:08.704Z,63.92
2019-03-04T16:15:39.344Z,63.68
2019-03-04T16:18:08.791Z,63.67
2019-03-04T16:20:37.676Z,63.81
2019-03-04T16:23:07.043Z,64.55
2019-03-04T16:25:35.900Z,64.37
2019-03-04T16:28:09.359Z,64.40
2019-03-04T16:30:39.300Z,64.32
2019-03-04T16:33:09.491Z,64.84
2019-03-04T16:35:38.876Z,64.99
2019-03-04T16:38:07.680Z,65.28
2019-03-04T16:40:37.240Z,65.52
2019-03-04T16:43:06.037Z,65.39
2019-03-04T16:45:34.870Z,65.90
2019-03-04T16:48:07.437Z,65.61
2019-03-04T16:50:36.328Z,65.90
2019-03-04T16:53:07.628Z,66.39
2019-03-04T16:55:37.131Z,66.52
2019-03-04T16:58:06.044Z,66.19
2019-03-04T17:00:34.832Z,66.48
2019-03-04T17:03:03.687Z,66.45
2019-03-04T17:05:33.162Z,66.96
2019-03-04T17:08:02.013Z,66.75
2019-03-04T17:10:31.435Z,66.93
2019-03-04T17:13:00.883Z,67.01
2019-03-04T17:15:30.469Z,67.39
2019-03-04T17:18:00.225Z,67.26
2019-03-04T17:20:29.071Z,67.90
2019-03-04T17:22:58.494Z,67.87
2019-03-04T17:25:28.937Z,67.81
2019-03-04T17:28:03.667Z,68.14
2019-03-04T17:30:32.516Z,67.93
2019-03-04T17:33:01.395Z,68.24
2019-03-04T17:35:31.175Z,67.82
2019-03-04T17:38:00.091Z,68.42
2019-03-04T17:40:29.007Z,67.85
2019-03-04T17:42:57.786Z,68.39
2019-03-04T17:45:26.855Z,68.85
2019-03-04T17:47:55.640Z,69.01
2019-03-04T17:50:28.955Z,68.99
2019-03-04T17:52:57.777Z,69.25
2019-03-04T17:55:26.591Z,69.31
2019-03-04T17:57:55.418Z,69.66
2019-03-04T18:00:24.783Z,69.56
2019-03-04T18:02:53.579Z,69.73
2019-03-04T18:05:23.460Z,69.76
2019-03-04T18:07:53.015Z,69.69
2019-03-04T18:10:21.855Z,70.43
2019-03-04T18:12:53.356Z,70.26
2019-03-04T18:15:22.955Z,70.61
2019-03-04T18:17:51.751Z,70.82
2019-03-04T18:20:21.156Z,70.67
2019-03-04T18:22:49.970Z,71.00
2019-03-04T18:25:24.325Z,71.13
2019-03-04T18:27:56.926Z,71.20
2019-03-04T18:30:44.938Z,71.18
2019-03-04T18:33:30.811Z,71.72
2019-03-04T18:36:42.348Z,71.38
2019-03-04T18:39:29.214Z,71.58
2019-03-04T18:42:07.216Z,71.40
2019-03-04T18:44:46.907Z,72.37
2019-03-04T18:47:39.839Z,72.29
2019-03-04T18:50:08.683Z,72.61
2019-03-04T18:52:37.535Z,72.59
2019-03-04T18:55:08.311Z,72.78
2019-03-04T18:57:37.179Z,72.88
2019-03-04T19:00:11.169Z,73.16
2019-03-04T19:02:41.282Z,73.11
2019-03-04T19:05:10.818Z,73.57
2019-03-04T19:07:39.816Z,74.24
2019-03-04T19:10:09.070Z,73.60
2019-03-04T19:12:39.081Z,73.80
2019-03-04T19:15:09.919Z,74.05
2019-03-04T19:17:38.785Z,73.83
2019-03-04T19:20:10.186Z,74.31
2019-03-04T19:22:39.004Z,73.98
2019-03-04T19:25:08.596Z,74.37
2019-03-04T19:27:37.408Z,74.20
2019-03-04T19:30:06.871Z,74.34
2019-03-04T19:32:35.740Z,74.20
2019-03-04T19:35:05.156Z,74.40
2019-03-04T19:37:33.939Z,74.51
2019-03-04T19:40:06.204Z,73.99
2019-03-04T19:42:32.957Z,74.20
2019-03-04T19:45:01.842Z,73.81
2019-03-04T19:47:30.704Z,73.87
2019-03-04T19:49:59.505Z,73.83
2019-03-04T19:52:29.219Z,74.04
2019-03-04T19:54:58.926Z,73.89
2019-03-04T19:57:30.756Z,73.64
2019-03-04T19:59:59.541Z,73.65
2019-03-04T20:02:28.643Z,74.21
2019-03-04T20:04:58.102Z,74.11
2019-03-04T20:07:27.900Z,73.83
2019-03-04T20:09:57.330Z,73.93
2019-03-04T20:12:27.996Z,74.27
2019-03-04T20:14:56.560Z,74.66
2019-03-04T20:17:25.578Z,74.07
2019-03-04T20:19:55.313Z,74.11
2019-03-04T20:22:24.135Z,74.50
2019-03-04T20:24:52.940Z,74.14
2019-03-04T20:27:24.539Z,74.05
2019-03-04T20:29:53.390Z,74.43
2019-03-04T20:32:22.192Z,74.68
2019-03-04T20:34:52.545Z,74.17
2019-03-04T20:37:21.308Z,74.76
2019-03-04T20:39:50.630Z,74.40
2019-03-04T20:42:20.194Z,74.68
2019-03-04T20:44:49.003Z,75.22
2019-03-04T20:47:19.306Z,74.82
2019-03-04T20:49:48.103Z,75.36
2019-03-04T20:52:16.886Z,75.98
2019-03-04T20:54:45.806Z,76.35
2019-03-04T20:57:15.184Z,76.62
2019-03-04T20:59:43.959Z,76.64
2019-03-04T21:02:12.813Z,77.00
2019-03-04T21:04:41.595Z,77.46
2019-03-04T21:07:11.248Z,77.64
2019-03-04T21:09:40.654Z,77.82
2019-03-04T21:12:10.867Z,77.92
2019-03-04T21:14:40.818Z,78.23
2019-03-04T21:17:10.638Z,78.02
2019-03-04T21:19:40.555Z,77.94
2019-03-04T21:22:09.359Z,78.12
2019-03-04T21:24:38.740Z,78.23
2019-03-04T21:27:07.550Z,78.20
2019-03-04T21:30:00.003Z,77.83
2019-03-04T21:32:40.186Z,77.86
2019-03-04T21:35:26.898Z,77.93
2019-03-04T21:37:56.830Z,78.29
2019-03-04T21:40:38.243Z,78.12
2019-03-04T21:43:15.820Z,78.25
2019-03-04T21:46:07.438Z,78.19
2019-03-04T21:48:42.417Z,78.56
2019-03-04T21:51:25.919Z,78.54
2019-03-04T21:53:54.978Z,78.77
2019-03-04T21:56:35.122Z,78.78
2019-03-04T21:59:04.694Z,79.33
2019-03-04T22:01:39.310Z,79.83
2019-03-04T22:04:09.410Z,79.79
2019-03-04T22:06:38.389Z,80.90
2019-03-04T22:09:07.520Z,80.21
2019-03-04T22:11:36.531Z,80.18
2019-03-04T22:14:06.368Z,80.15
2019-03-04T22:16:35.786Z,80.56
2019-03-04T22:19:06.214Z,80.93
2019-03-04T22:21:35.001Z,80.66
2019-03-04T22:24:04.679Z,80.51
2019-03-04T22:26:34.191Z,79.82
2019-03-04T22:29:03.720Z,80.35
2019-03-04T22:31:32.518Z,80.12
2019-03-04T22:34:01.291Z,80.13
2019-03-04T22:36:30.085Z,79.93
2019-03-04T22:38:58.888Z,79.73
2019-03-04T22:41:27.761Z,79.85
2019-03-04T22:43:57.310Z,80.29
2019-03-04T22:46:26.993Z,79.53
2019-03-04T22:48:56.390Z,79.33
2019-03-04T22:51:25.173Z,79.81
2019-03-04T22:53:54.808Z,79.42
2019-03-04T22:56:24.845Z,79.50
2019-03-04T22:58:53.630Z,79.63
2019-03-04T23:01:30.674Z,80.06
2019-03-04T23:04:05.579Z,79.30
2019-03-04T23:06:35.706Z,79.52
2019-03-04T23:09:07.445Z,79.61
2019-03-04T23:11:36.292Z,79.77
2019-03-04T23:14:12.692Z,79.31
2019-03-04T23:16:41.492Z,79.50
2019-03-04T23:19:11.711Z,79.67
2019-03-04T23:21:40.500Z,79.41
2019-03-04T23:24:09.994Z,79.97
2019-03-04T23:26:40.019Z,79.58
2019-03-04T23:29:08.762Z,79.83
2019-03-04T23:31:37.600Z,79.46
2019-03-04T23:34:06.386Z,79.55
2019-03-04T23:36:35.391Z,79.78
2019-03-04T23:39:05.563Z,79.79
2019-03-04T23:41:37.024Z,79.40
2019-03-04T23:44:06.816Z,78.98
2019-03-04T23:46:36.407Z,79.12
2019-03-04T23:49:05.812Z,79.52
2019-03-04T23:51:35.751Z,79.76
2019-03-04T23:54:05.612Z,79.90
2019-03-04T23:56:35.933Z,79.92
2019-03-04T23:59:04.723Z,79.90
